sensor_id;sensor_type;location;lat;lon;timestamp;pressure;altitude;pressure_sealevel;temperature;humidity
64739;BME280;51175;51.186;0.276;2023-04-23T00:00:07;99944.75;;;16.18;61.28
64739;BME280;51175;51.186;0.276;2023-04-23T00:00:42;99937.84;;;16.17;61.35
64739;BME280;51175;51.186;0.276;2023-04-23T00:01:13;99941.31;;;16.17;61.17
64739;BME280;51175;51.186;0.276;2023-04-23T00:01:43;99944.75;;;16.18;61.27
64739;BME280;51175;51.186;0.276;2023-04-23T00:02:15;99932.50;;;16.17;61.43
64739;BME280;51175;51.186;0.276;2023-04-23T00:02:47;99937.06;;;16.16;61.38
64739;BME280;51175;51.186;0.276;2023-04-23T00:03:20;99931.75;;;16.16;61.20
64739;BME280;51175;51.186;0.276;2023-04-23T00:03:57;99934.41;;;16.16;61.31
64739;BME280;51175;51.186;0.276;2023-04-23T00:04:29;99932.81;;;16.15;61.27
64739;BME280;51175;51.186;0.276;2023-04-23T00:05:04;99940.81;;;16.15;61.37
64739;BME280;51175;51.186;0.276;2023-04-23T00:05:35;99938.16;;;16.15;61.37
64739;BME280;51175;51.186;0.276;2023-04-23T00:06:07;99937.38;;;16.15;61.41
64739;BME280;51175;51.186;0.276;2023-04-23T00:06:41;99936.59;;;16.14;61.29
64739;BME280;51175;51.186;0.276;2023-04-23T00:07:12;99932.38;;;16.13;61.53
64739;BME280;51175;51.186;0.276;2023-04-23T00:07:43;99934.72;;;16.15;61.27
64739;BME280;51175;51.186;0.276;2023-04-23T00:08:15;99927.81;;;16.13;61.21
64739;BME280;51175;51.186;0.276;2023-04-23T00:08:47;99932.06;;;16.15;61.23
64739;BME280;51175;51.186;0.276;2023-04-23T00:09:21;99927.81;;;16.13;61.20
64739;BME280;51175;51.186;0.276;2023-04-23T00:09:55;99935.78;;;16.13;61.29
64739;BME280;51175;51.186;0.276;2023-04-23T00:10:26;99927.81;;;16.13;61.30
64739;BME280;51175;51.186;0.276;2023-04-23T00:10:57;99935.03;;;16.13;61.24
64739;BME280;51175;51.186;0.276;2023-04-23T00:11:28;99928.91;;;16.12;61.23
64739;BME280;51175;51.186;0.276;2023-04-23T00:11:59;99932.38;;;16.13;61.22
64739;BME280;51175;51.186;0.276;2023-04-23T00:12:31;99927.81;;;16.13;61.41
64739;BME280;51175;51.186;0.276;2023-04-23T00:13:02;99930.78;;;16.12;61.31
64739;BME280;51175;51.186;0.276;2023-04-23T00:13:34;99931.56;;;16.12;61.46
64739;BME280;51175;51.186;0.276;2023-04-23T00:14:04;99931.56;;;16.12;61.32
64739;BME280;51175;51.186;0.276;2023-04-23T00:14:35;99932.38;;;16.13;61.31
64739;BME280;51175;51.186;0.276;2023-04-23T00:15:06;99934.25;;;16.12;61.52
64739;BME280;51175;51.186;0.276;2023-04-23T00:15:37;99923.59;;;16.12;61.52
64739;BME280;51175;51.186;0.276;2023-04-23T00:16:08;99928.13;;;16.12;61.53
64739;BME280;51175;51.186;0.276;2023-04-23T00:16:40;99929.72;;;16.13;61.40
64739;BME280;51175;51.186;0.276;2023-04-23T00:17:10;99930.00;;;16.11;61.46
64739;BME280;51175;51.186;0.276;2023-04-23T00:17:41;99922.78;;;16.12;61.26
64739;BME280;51175;51.186;0.276;2023-04-23T00:18:11;99925.47;;;16.12;61.42
64739;BME280;51175;51.186;0.276;2023-04-23T00:18:42;99917.47;;;16.12;61.33
64739;BME280;51175;51.186;0.276;2023-04-23T00:19:13;99930.78;;;16.12;61.46
64739;BME280;51175;51.186;0.276;2023-04-23T00:19:43;99922.78;;;16.12;61.54
64739;BME280;51175;51.186;0.276;2023-04-23T00:20:15;99925.47;;;16.12;61.34
64739;BME280;51175;51.186;0.276;2023-04-23T00:20:46;99928.13;;;16.12;61.56
64739;BME280;51175;51.186;0.276;2023-04-23T00:21:16;99916.69;;;16.11;61.34
64739;BME280;51175;51.186;0.276;2023-04-23T00:21:47;99921.22;;;16.11;61.60
64739;BME280;51175;51.186;0.276;2023-04-23T00:22:17;99923.91;;;16.11;61.61
64739;BME280;51175;51.186;0.276;2023-04-23T00:22:49;99920.44;;;16.10;61.28
64739;BME280;51175;51.186;0.276;2023-04-23T00:23:20;99923.91;;;16.11;61.63
64739;BME280;51175;51.186;0.276;2023-04-23T00:23:50;99920.44;;;16.10;61.56
64739;BME280;51175;51.186;0.276;2023-04-23T00:24:21;99915.09;;;16.10;61.59
64739;BME280;51175;51.186;0.276;2023-04-23T00:24:51;99911.69;;;16.10;61.45
64739;BME280;51175;51.186;0.276;2023-04-23T00:25:22;99922.34;;;16.10;61.63
64739;BME280;51175;51.186;0.276;2023-04-23T00:25:52;99922.34;;;16.10;61.68
64739;BME280;51175;51.186;0.276;2023-04-23T00:26:23;99920.44;;;16.10;61.62
64739;BME280;51175;51.186;0.276;2023-04-23T00:26:53;99911.69;;;16.10;61.56
64739;BME280;51175;51.186;0.276;2023-04-23T00:27:24;99917.78;;;16.10;61.55
64739;BME280;51175;51.186;0.276;2023-04-23T00:27:54;99914.34;;;16.10;61.32
64739;BME280;51175;51.186;0.276;2023-04-23T00:28:25;99909.78;;;16.10;61.43
64739;BME280;51175;51.186;0.276;2023-04-23T00:28:55;99909.03;;;16.10;61.43
64739;BME280;51175;51.186;0.276;2023-04-23T00:29:25;99909.78;;;16.10;61.61
64739;BME280;51175;51.186;0.276;2023-04-23T00:29:56;99908.22;;;16.09;61.39
64739;BME280;51175;51.186;0.276;2023-04-23T00:30:27;99911.69;;;16.10;61.50
64739;BME280;51175;51.186;0.276;2023-04-23T00:30:57;99906.34;;;16.10;61.44
64739;BME280;51175;51.186;0.276;2023-04-23T00:31:28;99916.22;;;16.09;61.53
64739;BME280;51175;51.186;0.276;2023-04-23T00:31:59;99912.75;;;16.09;61.42
64739;BME280;51175;51.186;0.276;2023-04-23T00:32:29;99908.22;;;16.09;61.44
64739;BME280;51175;51.186;0.276;2023-04-23T00:33:00;99905.56;;;16.09;61.39
64739;BME280;51175;51.186;0.276;2023-04-23T00:33:31;99916.22;;;16.09;61.59
64739;BME280;51175;51.186;0.276;2023-04-23T00:34:02;99913.56;;;16.09;61.45
64739;BME280;51175;51.186;0.276;2023-04-23T00:34:32;99911.69;;;16.10;61.42
64739;BME280;51175;51.186;0.276;2023-04-23T00:35:03;99910.88;;;16.09;61.57
64739;BME280;51175;51.186;0.276;2023-04-23T00:35:33;99913.56;;;16.09;61.43
64739;BME280;51175;51.186;0.276;2023-04-23T00:36:04;99914.34;;;16.10;61.60
64739;BME280;51175;51.186;0.276;2023-04-23T00:36:34;99918.09;;;16.09;61.57
64739;BME280;51175;51.186;0.276;2023-04-23T00:37:05;99914.66;;;16.08;61.51
64739;BME280;51175;51.186;0.276;2023-04-23T00:37:37;99918.09;;;16.09;61.64
64739;BME280;51175;51.186;0.276;2023-04-23T00:38:07;99910.88;;;16.09;61.45
64739;BME280;51175;51.186;0.276;2023-04-23T00:38:38;99914.66;;;16.08;61.46
64739;BME280;51175;51.186;0.276;2023-04-23T00:39:08;99918.09;;;16.09;61.56
64739;BME280;51175;51.186;0.276;2023-04-23T00:39:40;99917.31;;;16.08;61.58
64739;BME280;51175;51.186;0.276;2023-04-23T00:40:11;99916.53;;;16.08;61.35
64739;BME280;51175;51.186;0.276;2023-04-23T00:40:42;99912.00;;;16.08;61.58
64739;BME280;51175;51.186;0.276;2023-04-23T00:41:13;99909.31;;;16.08;61.77
64739;BME280;51175;51.186;0.276;2023-04-23T00:41:43;99913.88;;;16.08;61.58
64739;BME280;51175;51.186;0.276;2023-04-23T00:42:14;99905.09;;;16.07;61.37
64739;BME280;51175;51.186;0.276;2023-04-23T00:42:46;99915.72;;;16.07;61.45
64739;BME280;51175;51.186;0.276;2023-04-23T00:43:19;99911.19;;;16.08;61.46
64739;BME280;51175;51.186;0.276;2023-04-23T00:43:49;99911.19;;;16.08;61.67
64739;BME280;51175;51.186;0.276;2023-04-23T00:44:22;99911.19;;;16.08;61.54
64739;BME280;51175;51.186;0.276;2023-04-23T00:44:53;99910.41;;;16.07;61.58
64739;BME280;51175;51.186;0.276;2023-04-23T00:45:24;99915.72;;;16.07;61.69
64739;BME280;51175;51.186;0.276;2023-04-23T00:45:54;99916.53;;;16.08;61.74
64739;BME280;51175;51.186;0.276;2023-04-23T00:46:25;99913.06;;;16.07;61.43
64739;BME280;51175;51.186;0.276;2023-04-23T00:46:56;99910.41;;;16.07;61.43
64739;BME280;51175;51.186;0.276;2023-04-23T00:47:28;99910.41;;;16.07;61.63
64739;BME280;51175;51.186;0.276;2023-04-23T00:47:58;99913.06;;;16.07;61.80
64739;BME280;51175;51.186;0.276;2023-04-23T00:48:29;99915.72;;;16.07;61.58
64739;BME280;51175;51.186;0.276;2023-04-23T00:49:01;99908.53;;;16.08;61.79
64739;BME280;51175;51.186;0.276;2023-04-23T00:49:32;99919.19;;;16.08;61.70
64739;BME280;51175;51.186;0.276;2023-04-23T00:50:03;99908.84;;;16.06;61.83
64739;BME280;51175;51.186;0.276;2023-04-23T00:50:34;99909.63;;;16.07;61.67
64739;BME280;51175;51.186;0.276;2023-04-23T00:51:05;99914.97;;;16.07;61.77
64739;BME280;51175;51.186;0.276;2023-04-23T00:51:35;99906.97;;;16.07;61.52
64739;BME280;51175;51.186;0.276;2023-04-23T00:52:06;99907.75;;;16.07;61.47
64739;BME280;51175;51.186;0.276;2023-04-23T00:52:36;99906.19;;;16.06;61.65
64739;BME280;51175;51.186;0.276;2023-04-23T00:53:08;99913.06;;;16.07;61.65
64739;BME280;51175;51.186;0.276;2023-04-23T00:53:38;99908.84;;;16.06;61.46
64739;BME280;51175;51.186;0.276;2023-04-23T00:54:09;99901.66;;;16.07;61.61
64739;BME280;51175;51.186;0.276;2023-04-23T00:54:39;99908.06;;;16.06;61.62
64739;BME280;51175;51.186;0.276;2023-04-23T00:55:10;99908.84;;;16.06;61.81
64739;BME280;51175;51.186;0.276;2023-04-23T00:55:40;99905.38;;;16.06;61.77
64739;BME280;51175;51.186;0.276;2023-04-23T00:56:11;99908.84;;;16.06;61.63
64739;BME280;51175;51.186;0.276;2023-04-23T00:56:42;99908.84;;;16.06;61.58
64739;BME280;51175;51.186;0.276;2023-04-23T00:57:13;99898.19;;;16.06;61.57
64739;BME280;51175;51.186;0.276;2023-04-23T00:57:43;99893.19;;;16.05;61.72
64739;BME280;51175;51.186;0.276;2023-04-23T00:58:14;99902.72;;;16.06;61.85
64739;BME280;51175;51.186;0.276;2023-04-23T00:58:44;99900.06;;;16.06;61.75
64739;BME280;51175;51.186;0.276;2023-04-23T00:59:15;99896.63;;;16.05;61.70
64739;BME280;51175;51.186;0.276;2023-04-23T00:59:45;99901.97;;;16.05;61.80
64739;BME280;51175;51.186;0.276;2023-04-23T01:00:16;99895.84;;;16.05;61.65
64739;BME280;51175;51.186;0.276;2023-04-23T01:00:47;99897.72;;;16.04;61.59
64739;BME280;51175;51.186;0.276;2023-04-23T01:01:22;99900.38;;;16.04;61.67
64739;BME280;51175;51.186;0.276;2023-04-23T01:01:54;99897.72;;;16.04;61.63
64739;BME280;51175;51.186;0.276;2023-04-23T01:02:25;99898.50;;;16.05;61.62
64739;BME280;51175;51.186;0.276;2023-04-23T01:02:59;99890.50;;;16.05;61.53
64739;BME280;51175;51.186;0.276;2023-04-23T01:03:31;99889.72;;;16.04;61.43
64739;BME280;51175;51.186;0.276;2023-04-23T01:04:03;99891.63;;;16.04;61.66
64739;BME280;51175;51.186;0.276;2023-04-23T01:04:34;99895.34;;;16.03;61.64
64739;BME280;51175;51.186;0.276;2023-04-23T01:05:06;99896.16;;;16.03;61.63
64739;BME280;51175;51.186;0.276;2023-04-23T01:05:40;99884.72;;;16.03;61.66
64739;BME280;51175;51.186;0.276;2023-04-23T01:06:11;99886.28;;;16.04;61.61
64739;BME280;51175;51.186;0.276;2023-04-23T01:06:43;99890.81;;;16.03;61.61
64739;BME280;51175;51.186;0.276;2023-04-23T01:07:16;99893.50;;;16.03;61.58
64739;BME280;51175;51.186;0.276;2023-04-23T01:07:47;99898.03;;;16.03;61.53
64739;BME280;51175;51.186;0.276;2023-04-23T01:08:18;99893.50;;;16.03;61.64
64739;BME280;51175;51.186;0.276;2023-04-23T01:08:49;99899.59;;;16.04;61.53
64739;BME280;51175;51.186;0.276;2023-04-23T01:09:20;99897.25;;;16.02;61.91
64739;BME280;51175;51.186;0.276;2023-04-23T01:09:51;99897.25;;;16.02;61.51
64739;BME280;51175;51.186;0.276;2023-04-23T01:10:22;99888.47;;;16.01;61.45
64739;BME280;51175;51.186;0.276;2023-04-23T01:10:52;99897.25;;;16.02;61.68
64739;BME280;51175;51.186;0.276;2023-04-23T01:11:24;99881.28;;;16.02;61.61
64739;BME280;51175;51.186;0.276;2023-04-23T01:11:55;99880.47;;;16.01;61.67
64739;BME280;51175;51.186;0.276;2023-04-23T01:12:27;99884.72;;;16.03;61.89
64739;BME280;51175;51.186;0.276;2023-04-23T01:12:57;99897.25;;;16.02;61.74
64739;BME280;51175;51.186;0.276;2023-04-23T01:13:29;99891.94;;;16.02;61.58
64739;BME280;51175;51.186;0.276;2023-04-23T01:13:59;99896.47;;;16.01;61.76
64739;BME280;51175;51.186;0.276;2023-04-23T01:14:30;99887.69;;;16.01;61.79
64739;BME280;51175;51.186;0.276;2023-04-23T01:15:01;99888.47;;;16.01;61.83
64739;BME280;51175;51.186;0.276;2023-04-23T01:15:32;99889.28;;;16.02;61.55
64739;BME280;51175;51.186;0.276;2023-04-23T01:16:02;99890.34;;;16.01;61.85
64739;BME280;51175;51.186;0.276;2023-04-23T01:16:33;99885.00;;;16.01;61.92
64739;BME280;51175;51.186;0.276;2023-04-23T01:17:04;99893.00;;;16.01;61.85
64739;BME280;51175;51.186;0.276;2023-04-23T01:17:35;99885.81;;;16.01;61.87
64739;BME280;51175;51.186;0.276;2023-04-23T01:18:06;99882.34;;;16.01;61.67
64739;BME280;51175;51.186;0.276;2023-04-23T01:18:37;99895.66;;;16.01;61.78
64739;BME280;51175;51.186;0.276;2023-04-23T01:19:10;99889.56;;;16.00;61.64
64739;BME280;51175;51.186;0.276;2023-04-23T01:19:41;99888.78;;;16.00;61.73
64739;BME280;51175;51.186;0.276;2023-04-23T01:20:12;99894.09;;;16.00;61.76
64739;BME280;51175;51.186;0.276;2023-04-23T01:20:42;99881.59;;;16.00;61.81
64739;BME280;51175;51.186;0.276;2023-04-23T01:21:13;99891.44;;;16.00;61.60
64739;BME280;51175;51.186;0.276;2023-04-23T01:21:44;99884.53;;;15.99;61.78
64739;BME280;51175;51.186;0.276;2023-04-23T01:22:15;99880.78;;;16.00;61.89
64739;BME280;51175;51.186;0.276;2023-04-23T01:22:46;99888.00;;;15.99;61.75
64739;BME280;51175;51.186;0.276;2023-04-23T01:23:16;99878.94;;;16.00;61.65
64739;BME280;51175;51.186;0.276;2023-04-23T01:23:48;99880.00;;;15.99;61.99
64739;BME280;51175;51.186;0.276;2023-04-23T01:24:18;99876.53;;;15.99;61.72
64739;BME280;51175;51.186;0.276;2023-04-23T01:24:49;99877.34;;;15.99;61.73
64739;BME280;51175;51.186;0.276;2023-04-23T01:25:20;99874.69;;;15.99;61.85
64739;BME280;51175;51.186;0.276;2023-04-23T01:25:52;99883.47;;;16.00;61.78
64739;BME280;51175;51.186;0.276;2023-04-23T01:26:22;99879.22;;;15.99;61.97
64739;BME280;51175;51.186;0.276;2023-04-23T01:26:53;99878.13;;;16.00;61.79
64739;BME280;51175;51.186;0.276;2023-04-23T01:27:24;99876.53;;;15.99;61.58
64739;BME280;51175;51.186;0.276;2023-04-23T01:27:56;99872.00;;;15.99;61.71
64739;BME280;51175;51.186;0.276;2023-04-23T01:28:26;99871.22;;;15.99;61.68
64739;BME280;51175;51.186;0.276;2023-04-23T01:28:58;99876.53;;;15.99;61.90
64739;BME280;51175;51.186;0.276;2023-04-23T01:29:29;99871.22;;;15.99;61.91
64739;BME280;51175;51.186;0.276;2023-04-23T01:30:02;99880.31;;;15.98;61.71
64739;BME280;51175;51.186;0.276;2023-04-23T01:30:35;99875.00;;;15.98;61.87
64739;BME280;51175;51.186;0.276;2023-04-23T01:31:05;99877.66;;;15.98;61.70
64739;BME280;51175;51.186;0.276;2023-04-23T01:31:36;99882.19;;;15.97;61.70
64739;BME280;51175;51.186;0.276;2023-04-23T01:32:07;99873.41;;;15.97;61.77
64739;BME280;51175;51.186;0.276;2023-04-23T01:32:38;99873.41;;;15.97;61.63
64739;BME280;51175;51.186;0.276;2023-04-23T01:33:09;99876.84;;;15.97;61.84
64739;BME280;51175;51.186;0.276;2023-04-23T01:33:40;99882.97;;;15.98;61.87
64739;BME280;51175;51.186;0.276;2023-04-23T01:34:11;99873.41;;;15.97;61.96
64739;BME280;51175;51.186;0.276;2023-04-23T01:34:42;99871.53;;;15.97;61.78
64739;BME280;51175;51.186;0.276;2023-04-23T01:35:13;99873.41;;;15.97;61.91
64739;BME280;51175;51.186;0.276;2023-04-23T01:35:45;99872.59;;;15.96;61.79
64739;BME280;51175;51.186;0.276;2023-04-23T01:36:18;99870.72;;;15.97;61.60
64739;BME280;51175;51.186;0.276;2023-04-23T01:36:48;99871.81;;;15.96;61.79
64739;BME280;51175;51.186;0.276;2023-04-23T01:37:20;99876.06;;;15.97;61.83
64739;BME280;51175;51.186;0.276;2023-04-23T01:37:52;99867.28;;;15.96;61.80
64739;BME280;51175;51.186;0.276;2023-04-23T01:38:25;99863.81;;;15.96;61.94
64739;BME280;51175;51.186;0.276;2023-04-23T01:38:57;99867.28;;;15.96;61.63
64739;BME280;51175;51.186;0.276;2023-04-23T01:39:28;99866.50;;;15.96;61.63
64739;BME280;51175;51.186;0.276;2023-04-23T01:39:58;99859.59;;;15.95;61.79
64739;BME280;51175;51.186;0.276;2023-04-23T01:40:30;99863.81;;;15.96;61.75
64739;BME280;51175;51.186;0.276;2023-04-23T01:41:00;99864.94;;;15.95;61.98
64739;BME280;51175;51.186;0.276;2023-04-23T01:41:31;99865.72;;;15.95;61.66
64739;BME280;51175;51.186;0.276;2023-04-23T01:42:01;99863.81;;;15.96;61.82
64739;BME280;51175;51.186;0.276;2023-04-23T01:42:33;99863.81;;;15.96;61.85
64739;BME280;51175;51.186;0.276;2023-04-23T01:43:05;99865.72;;;15.95;61.97
64739;BME280;51175;51.186;0.276;2023-04-23T01:43:36;99864.94;;;15.95;61.76
64739;BME280;51175;51.186;0.276;2023-04-23T01:44:07;99864.94;;;15.95;61.71
64739;BME280;51175;51.186;0.276;2023-04-23T01:44:38;99863.06;;;15.95;61.94
64739;BME280;51175;51.186;0.276;2023-04-23T01:45:09;99864.94;;;15.95;61.89
64739;BME280;51175;51.186;0.276;2023-04-23T01:45:40;99870.25;;;15.95;61.84
64739;BME280;51175;51.186;0.276;2023-04-23T01:46:11;99858.81;;;15.94;61.75
64739;BME280;51175;51.186;0.276;2023-04-23T01:46:41;99863.06;;;15.95;61.87
64739;BME280;51175;51.186;0.276;2023-04-23T01:47:12;99858.81;;;15.94;61.66
64739;BME280;51175;51.186;0.276;2023-04-23T01:47:42;99863.38;;;15.94;61.94
64739;BME280;51175;51.186;0.276;2023-04-23T01:48:13;99859.59;;;15.95;61.95
64739;BME280;51175;51.186;0.276;2023-04-23T01:48:44;99861.47;;;15.94;61.84
64739;BME280;51175;51.186;0.276;2023-04-23T01:49:14;99855.38;;;15.94;61.98
64739;BME280;51175;51.186;0.276;2023-04-23T01:49:45;99858.81;;;15.94;61.93
64739;BME280;51175;51.186;0.276;2023-04-23T01:50:15;99863.38;;;15.94;61.74
64739;BME280;51175;51.186;0.276;2023-04-23T01:50:47;99860.72;;;15.94;61.93
64739;BME280;51175;51.186;0.276;2023-04-23T01:51:17;99859.91;;;15.93;61.68
64739;BME280;51175;51.186;0.276;2023-04-23T01:51:48;99852.72;;;15.94;61.66
64739;BME280;51175;51.186;0.276;2023-04-23T01:52:18;99858.03;;;15.94;61.77
64739;BME280;51175;51.186;0.276;2023-04-23T01:52:49;99863.38;;;15.94;61.93
64739;BME280;51175;51.186;0.276;2023-04-23T01:53:20;99865.25;;;15.93;61.88
64739;BME280;51175;51.186;0.276;2023-04-23T01:53:50;99863.69;;;15.92;61.90
64739;BME280;51175;51.186;0.276;2023-04-23T01:54:21;99854.59;;;15.93;61.86
64739;BME280;51175;51.186;0.276;2023-04-23T01:54:51;99857.25;;;15.93;61.95
64739;BME280;51175;51.186;0.276;2023-04-23T01:55:21;99863.38;;;15.94;61.68
64739;BME280;51175;51.186;0.276;2023-04-23T01:55:54;99864.44;;;15.93;61.99
64739;BME280;51175;51.186;0.276;2023-04-23T01:56:26;99859.13;;;15.93;61.64
64739;BME280;51175;51.186;0.276;2023-04-23T01:56:57;99857.25;;;15.93;61.81
64739;BME280;51175;51.186;0.276;2023-04-23T01:57:28;99850.38;;;15.92;61.78
64739;BME280;51175;51.186;0.276;2023-04-23T01:57:58;99864.44;;;15.93;61.91
64739;BME280;51175;51.186;0.276;2023-04-23T01:58:29;99853.78;;;15.93;61.67
64739;BME280;51175;51.186;0.276;2023-04-23T01:59:02;99854.59;;;15.93;61.60
64739;BME280;51175;51.186;0.276;2023-04-23T01:59:32;99851.94;;;15.93;61.63
64739;BME280;51175;51.186;0.276;2023-04-23T02:00:08;99857.25;;;15.93;61.70
64739;BME280;51175;51.186;0.276;2023-04-23T02:00:40;99853.03;;;15.92;61.83
64739;BME280;51175;51.186;0.276;2023-04-23T02:01:11;99854.91;;;15.92;61.82
64739;BME280;51175;51.186;0.276;2023-04-23T02:01:45;99855.69;;;15.92;62.12
64739;BME280;51175;51.186;0.276;2023-04-23T02:02:16;99848.78;;;15.91;61.76
64739;BME280;51175;51.186;0.276;2023-04-23T02:02:46;99850.69;;;15.91;61.98
64739;BME280;51175;51.186;0.276;2023-04-23T02:03:17;99854.09;;;15.91;62.09
64739;BME280;51175;51.186;0.276;2023-04-23T02:03:48;99853.34;;;15.91;61.69
64739;BME280;51175;51.186;0.276;2023-04-23T02:04:19;99850.38;;;15.92;61.82
64739;BME280;51175;51.186;0.276;2023-04-23T02:04:50;99856.00;;;15.91;61.99
64739;BME280;51175;51.186;0.276;2023-04-23T02:05:23;99854.09;;;15.91;61.76
64739;BME280;51175;51.186;0.276;2023-04-23T02:05:55;99846.91;;;15.92;62.07
64739;BME280;51175;51.186;0.276;2023-04-23T02:06:25;99850.69;;;15.91;61.90
64739;BME280;51175;51.186;0.276;2023-04-23T02:06:56;99844.56;;;15.90;61.98
64739;BME280;51175;51.186;0.276;2023-04-23T02:07:27;99848.78;;;15.91;61.96
64739;BME280;51175;51.186;0.276;2023-04-23T02:07:57;99852.56;;;15.90;61.99
64739;BME280;51175;51.186;0.276;2023-04-23T02:08:28;99850.69;;;15.91;61.94
64739;BME280;51175;51.186;0.276;2023-04-23T02:08:58;99857.88;;;15.90;61.61
64739;BME280;51175;51.186;0.276;2023-04-23T02:09:28;99851.75;;;15.89;62.11
64739;BME280;51175;51.186;0.276;2023-04-23T02:09:59;99852.22;;;15.92;61.92
64739;BME280;51175;51.186;0.276;2023-04-23T02:10:30;99845.34;;;15.91;61.82
64739;BME280;51175;51.186;0.276;2023-04-23T02:11:01;99847.22;;;15.90;61.83
64739;BME280;51175;51.186;0.276;2023-04-23T02:11:32;99847.22;;;15.90;61.91
64739;BME280;51175;51.186;0.276;2023-04-23T02:12:02;99843.00;;;15.89;61.92
64739;BME280;51175;51.186;0.276;2023-04-23T02:12:33;99845.66;;;15.89;61.92
64739;BME280;51175;51.186;0.276;2023-04-23T02:13:03;99850.19;;;15.88;62.11
64739;BME280;51175;51.186;0.276;2023-04-23T02:13:34;99841.09;;;15.89;62.13
64739;BME280;51175;51.186;0.276;2023-04-23T02:14:05;99848.31;;;15.89;61.79
64739;BME280;51175;51.186;0.276;2023-04-23T02:14:36;99844.06;;;15.88;61.81
64739;BME280;51175;51.186;0.276;2023-04-23T02:15:08;99850.19;;;15.88;61.92
64739;BME280;51175;51.186;0.276;2023-04-23T02:15:39;99848.31;;;15.89;62.05
64739;BME280;51175;51.186;0.276;2023-04-23T02:16:09;99844.88;;;15.88;61.87
64739;BME280;51175;51.186;0.276;2023-04-23T02:16:40;99846.75;;;15.88;62.02
64739;BME280;51175;51.186;0.276;2023-04-23T02:17:10;99850.19;;;15.88;62.02
64739;BME280;51175;51.186;0.276;2023-04-23T02:17:41;99836.88;;;15.88;61.85
64739;BME280;51175;51.186;0.276;2023-04-23T02:18:12;99843.00;;;15.89;61.96
64739;BME280;51175;51.186;0.276;2023-04-23T02:18:42;99836.09;;;15.88;61.74
64739;BME280;51175;51.186;0.276;2023-04-23T02:19:13;99836.88;;;15.88;61.81
64739;BME280;51175;51.186;0.276;2023-04-23T02:19:45;99844.06;;;15.88;62.03
64739;BME280;51175;51.186;0.276;2023-04-23T02:20:17;99845.97;;;15.87;61.76
64739;BME280;51175;51.186;0.276;2023-04-23T02:20:47;99841.41;;;15.88;62.03
64739;BME280;51175;51.186;0.276;2023-04-23T02:21:18;99836.88;;;15.88;61.99
64739;BME280;51175;51.186;0.276;2023-04-23T02:21:49;99840.66;;;15.87;62.17
64739;BME280;51175;51.186;0.276;2023-04-23T02:22:19;99834.53;;;15.87;61.83
64739;BME280;51175;51.186;0.276;2023-04-23T02:22:51;99842.22;;;15.88;62.02
64739;BME280;51175;51.186;0.276;2023-04-23T02:23:21;99842.53;;;15.87;61.94
64739;BME280;51175;51.186;0.276;2023-04-23T02:23:52;99840.66;;;15.87;62.02
64739;BME280;51175;51.186;0.276;2023-04-23T02:24:23;99844.88;;;15.88;61.85
64739;BME280;51175;51.186;0.276;2023-04-23T02:24:53;99838.75;;;15.88;62.06
64739;BME280;51175;51.186;0.276;2023-04-23T02:25:24;99844.06;;;15.88;62.25
64739;BME280;51175;51.186;0.276;2023-04-23T02:25:54;99843.31;;;15.87;61.73
64739;BME280;51175;51.186;0.276;2023-04-23T02:26:25;99835.31;;;15.87;61.92
64739;BME280;51175;51.186;0.276;2023-04-23T02:26:56;99833.44;;;15.88;62.06
64739;BME280;51175;51.186;0.276;2023-04-23T02:27:27;99832.66;;;15.87;62.08
64739;BME280;51175;51.186;0.276;2023-04-23T02:27:57;99842.53;;;15.87;61.76
64739;BME280;51175;51.186;0.276;2023-04-23T02:28:29;99830.31;;;15.86;61.85
64739;BME280;51175;51.186;0.276;2023-04-23T02:29:00;99839.06;;;15.86;62.05
64739;BME280;51175;51.186;0.276;2023-04-23T02:29:30;99842.53;;;15.87;61.88
64739;BME280;51175;51.186;0.276;2023-04-23T02:30:01;99839.06;;;15.86;62.03
64739;BME280;51175;51.186;0.276;2023-04-23T02:30:35;99835.63;;;15.86;62.04
64739;BME280;51175;51.186;0.276;2023-04-23T02:31:05;99839.84;;;15.87;61.87
64739;BME280;51175;51.186;0.276;2023-04-23T02:31:36;99836.41;;;15.86;61.68
64739;BME280;51175;51.186;0.276;2023-04-23T02:32:06;99838.00;;;15.87;62.07
64739;BME280;51175;51.186;0.276;2023-04-23T02:32:37;99833.75;;;15.86;61.84
64739;BME280;51175;51.186;0.276;2023-04-23T02:33:07;99831.88;;;15.87;61.86
64739;BME280;51175;51.186;0.276;2023-04-23T02:33:38;99835.63;;;15.86;62.08
64739;BME280;51175;51.186;0.276;2023-04-23T02:34:08;99839.84;;;15.87;62.14
64739;BME280;51175;51.186;0.276;2023-04-23T02:34:39;99840.66;;;15.87;61.96
64739;BME280;51175;51.186;0.276;2023-04-23T02:35:09;99834.84;;;15.85;62.13
64739;BME280;51175;51.186;0.276;2023-04-23T02:35:40;99839.06;;;15.86;61.83
64739;BME280;51175;51.186;0.276;2023-04-23T02:36:10;99837.19;;;15.87;61.73
64739;BME280;51175;51.186;0.276;2023-04-23T02:36:41;99835.63;;;15.86;62.06
64739;BME280;51175;51.186;0.276;2023-04-23T02:37:12;99840.16;;;15.85;62.11
64739;BME280;51175;51.186;0.276;2023-04-23T02:37:42;99834.84;;;15.85;62.09
64739;BME280;51175;51.186;0.276;2023-04-23T02:38:12;99834.84;;;15.85;61.86
64739;BME280;51175;51.186;0.276;2023-04-23T02:38:43;99845.50;;;15.85;61.89
64739;BME280;51175;51.186;0.276;2023-04-23T02:39:14;99833.28;;;15.84;62.07
64739;BME280;51175;51.186;0.276;2023-04-23T02:39:45;99847.34;;;15.85;62.07
64739;BME280;51175;51.186;0.276;2023-04-23T02:40:15;99839.38;;;15.85;61.97
64739;BME280;51175;51.186;0.276;2023-04-23T02:40:46;99848.16;;;15.85;61.88
64739;BME280;51175;51.186;0.276;2023-04-23T02:41:16;99843.94;;;15.84;61.92
64739;BME280;51175;51.186;0.276;2023-04-23T02:41:47;99843.94;;;15.84;61.89
64739;BME280;51175;51.186;0.276;2023-04-23T02:42:17;99845.50;;;15.85;61.97
64739;BME280;51175;51.186;0.276;2023-04-23T02:42:48;99841.28;;;15.84;61.96
64739;BME280;51175;51.186;0.276;2023-04-23T02:43:20;99838.63;;;15.84;62.00
64739;BME280;51175;51.186;0.276;2023-04-23T02:43:50;99839.69;;;15.83;62.03
64739;BME280;51175;51.186;0.276;2023-04-23T02:44:21;99844.69;;;15.85;61.97